sensor_id;sensor_type;location;lat;lon;timestamp;P1;durP1;ratioP1;P2;durP2;ratioP2
15094;SDS011;7648;52.264;9.632;2024-02-15T00:00:29;8.13;;;7.30;;
15094;SDS011;7648;52.264;9.632;2024-02-15T00:04:33;6.57;;;6.07;;
15094;SDS011;7648;52.264;9.632;2024-02-15T00:08:35;7.97;;;7.27;;
15094;SDS011;7648;52.264;9.632;2024-02-15T00:12:36;6.63;;;6.13;;
15094;SDS011;7648;52.264;9.632;2024-02-15T00:16:40;5.90;;;5.43;;
15094;SDS011;7648;52.264;9.632;2024-02-15T00:20:42;6.33;;;5.93;;
15094;SDS011;7648;52.264;9.632;2024-02-15T00:24:44;6.30;;;5.70;;
15094;SDS011;7648;52.264;9.632;2024-02-15T00:28:46;5.47;;;5.17;;
15094;SDS011;7648;52.264;9.632;2024-02-15T00:32:50;6.60;;;6.10;;
15094;SDS011;7648;52.264;9.632;2024-02-15T00:36:52;6.10;;;5.60;;
15094;SDS011;7648;52.264;9.632;2024-02-15T00:40:54;6.83;;;6.23;;
15094;SDS011;7648;52.264;9.632;2024-02-15T00:44:56;7.50;;;6.80;;
15094;SDS011;7648;52.264;9.632;2024-02-15T00:49:00;7.17;;;6.57;;
15094;SDS011;7648;52.264;9.632;2024-02-15T00:53:02;6.47;;;5.97;;
15094;SDS011;7648;52.264;9.632;2024-02-15T00:57:04;6.77;;;6.17;;
15094;SDS011;7648;52.264;9.632;2024-02-15T01:01:06;6.30;;;5.80;;
15094;SDS011;7648;52.264;9.632;2024-02-15T01:05:10;7.70;;;6.90;;
15094;SDS011;7648;52.264;9.632;2024-02-15T01:09:15;6.43;;;5.90;;
15094;SDS011;7648;52.264;9.632;2024-02-15T01:13:18;6.53;;;6.03;;
15094;SDS011;7648;52.264;9.632;2024-02-15T01:17:20;6.87;;;6.27;;
15094;SDS011;7648;52.264;9.632;2024-02-15T01:21:23;6.70;;;6.00;;
15094;SDS011;7648;52.264;9.632;2024-02-15T01:25:25;5.13;;;4.73;;
15094;SDS011;7648;52.264;9.632;2024-02-15T01:29:28;4.77;;;4.47;;
15094;SDS011;7648;52.264;9.632;2024-02-15T01:33:30;5.50;;;5.10;;
15094;SDS011;7648;52.264;9.632;2024-02-15T01:37:33;5.53;;;5.13;;
15094;SDS011;7648;52.264;9.632;2024-02-15T01:41:35;5.30;;;4.93;;
15094;SDS011;7648;52.264;9.632;2024-02-15T01:45:38;4.67;;;4.33;;
15094;SDS011;7648;52.264;9.632;2024-02-15T01:49:40;5.20;;;4.90;;
15094;SDS011;7648;52.264;9.632;2024-02-15T01:53:44;5.77;;;5.37;;
15094;SDS011;7648;52.264;9.632;2024-02-15T01:57:46;5.57;;;5.07;;
15094;SDS011;7648;52.264;9.632;2024-02-15T02:01:50;5.67;;;5.27;;
15094;SDS011;7648;52.264;9.632;2024-02-15T02:05:52;5.87;;;5.37;;
15094;SDS011;7648;52.264;9.632;2024-02-15T02:09:55;4.87;;;4.53;;
15094;SDS011;7648;52.264;9.632;2024-02-15T02:13:57;5.23;;;4.77;;
15094;SDS011;7648;52.264;9.632;2024-02-15T02:18:00;4.80;;;4.43;;
15094;SDS011;7648;52.264;9.632;2024-02-15T02:22:02;5.67;;;5.10;;
15094;SDS011;7648;52.264;9.632;2024-02-15T02:26:07;4.60;;;4.30;;
15094;SDS011;7648;52.264;9.632;2024-02-15T02:30:12;4.80;;;4.37;;
15094;SDS011;7648;52.264;9.632;2024-02-15T02:34:18;4.37;;;4.07;;
15094;SDS011;7648;52.264;9.632;2024-02-15T02:38:20;4.13;;;3.90;;
15094;SDS011;7648;52.264;9.632;2024-02-15T02:42:27;4.00;;;3.70;;
15094;SDS011;7648;52.264;9.632;2024-02-15T02:46:29;3.30;;;3.10;;
15094;SDS011;7648;52.264;9.632;2024-02-15T02:50:31;3.80;;;3.60;;
15094;SDS011;7648;52.264;9.632;2024-02-15T02:54:32;3.20;;;3.00;;
15094;SDS011;7648;52.264;9.632;2024-02-15T02:58:36;3.80;;;3.60;;
15094;SDS011;7648;52.264;9.632;2024-02-15T03:02:42;3.47;;;3.27;;
15094;SDS011;7648;52.264;9.632;2024-02-15T03:06:44;3.10;;;2.90;;
15094;SDS011;7648;52.264;9.632;2024-02-15T03:10:48;3.70;;;3.50;;
15094;SDS011;7648;52.264;9.632;2024-02-15T03:14:52;4.00;;;3.80;;
15094;SDS011;7648;52.264;9.632;2024-02-15T03:18:55;4.07;;;3.77;;
15094;SDS011;7648;52.264;9.632;2024-02-15T03:22:57;4.27;;;3.97;;
15094;SDS011;7648;52.264;9.632;2024-02-15T03:26:59;3.40;;;3.20;;
15094;SDS011;7648;52.264;9.632;2024-02-15T03:31:02;3.63;;;3.43;;
15094;SDS011;7648;52.264;9.632;2024-02-15T03:35:05;3.17;;;2.97;;
15094;SDS011;7648;52.264;9.632;2024-02-15T03:39:07;3.83;;;3.43;;
15094;SDS011;7648;52.264;9.632;2024-02-15T03:43:09;3.57;;;3.30;;
15094;SDS011;7648;52.264;9.632;2024-02-15T03:47:12;3.50;;;3.30;;
15094;SDS011;7648;52.264;9.632;2024-02-15T03:51:15;2.90;;;2.80;;
15094;SDS011;7648;52.264;9.632;2024-02-15T03:55:18;3.10;;;2.90;;
15094;SDS011;7648;52.264;9.632;2024-02-15T03:59:22;3.70;;;3.40;;
15094;SDS011;7648;52.264;9.632;2024-02-15T04:03:28;4.00;;;3.80;;
15094;SDS011;7648;52.264;9.632;2024-02-15T04:07:32;3.37;;;3.17;;
15094;SDS011;7648;52.264;9.632;2024-02-15T04:11:34;5.00;;;4.60;;
15094;SDS011;7648;52.264;9.632;2024-02-15T04:15:37;4.03;;;3.83;;
15094;SDS011;7648;52.264;9.632;2024-02-15T04:19:41;3.20;;;3.00;;
15094;SDS011;7648;52.264;9.632;2024-02-15T04:23:44;3.50;;;3.30;;
15094;SDS011;7648;52.264;9.632;2024-02-15T04:27:46;4.37;;;4.07;;
15094;SDS011;7648;52.264;9.632;2024-02-15T04:31:49;3.63;;;3.43;;
15094;SDS011;7648;52.264;9.632;2024-02-15T04:35:52;3.43;;;3.23;;
15094;SDS011;7648;52.264;9.632;2024-02-15T04:39:54;3.87;;;3.67;;
15094;SDS011;7648;52.264;9.632;2024-02-15T04:43:57;4.20;;;3.90;;
15094;SDS011;7648;52.264;9.632;2024-02-15T04:47:59;3.50;;;3.20;;
15094;SDS011;7648;52.264;9.632;2024-02-15T04:52:04;3.63;;;3.43;;
15094;SDS011;7648;52.264;9.632;2024-02-15T04:56:06;3.67;;;3.37;;
15094;SDS011;7648;52.264;9.632;2024-02-15T05:00:14;4.30;;;3.43;;
15094;SDS011;7648;52.264;9.632;2024-02-15T05:04:20;3.93;;;3.73;;
15094;SDS011;7648;52.264;9.632;2024-02-15T05:08:24;3.70;;;3.40;;
15094;SDS011;7648;52.264;9.632;2024-02-15T05:12:26;3.43;;;3.23;;
15094;SDS011;7648;52.264;9.632;2024-02-15T05:16:28;3.40;;;3.20;;
15094;SDS011;7648;52.264;9.632;2024-02-15T05:20:31;4.20;;;3.90;;
15094;SDS011;7648;52.264;9.632;2024-02-15T05:24:36;4.17;;;3.87;;
15094;SDS011;7648;52.264;9.632;2024-02-15T05:28:38;5.70;;;5.10;;
15094;SDS011;7648;52.264;9.632;2024-02-15T05:32:40;4.73;;;4.33;;
15094;SDS011;7648;52.264;9.632;2024-02-15T05:36:44;6.17;;;5.57;;
15094;SDS011;7648;52.264;9.632;2024-02-15T05:40:49;5.13;;;4.73;;
15094;SDS011;7648;52.264;9.632;2024-02-15T05:44:51;6.03;;;5.53;;
15094;SDS011;7648;52.264;9.632;2024-02-15T05:48:53;5.73;;;5.23;;
15094;SDS011;7648;52.264;9.632;2024-02-15T05:52:55;7.23;;;6.53;;
15094;SDS011;7648;52.264;9.632;2024-02-15T05:56:59;5.90;;;5.33;;
15094;SDS011;7648;52.264;9.632;2024-02-15T06:01:03;6.00;;;5.50;;
15094;SDS011;7648;52.264;9.632;2024-02-15T06:05:07;6.47;;;5.87;;
15094;SDS011;7648;52.264;9.632;2024-02-15T06:09:10;7.43;;;6.47;;
15094;SDS011;7648;52.264;9.632;2024-02-15T06:13:13;8.43;;;7.00;;
15094;SDS011;7648;52.264;9.632;2024-02-15T06:17:15;8.80;;;8.00;;
15094;SDS011;7648;52.264;9.632;2024-02-15T06:21:17;8.27;;;7.50;;
15094;SDS011;7648;52.264;9.632;2024-02-15T06:25:20;9.17;;;7.83;;
15094;SDS011;7648;52.264;9.632;2024-02-15T06:29:24;9.33;;;7.97;;
15094;SDS011;7648;52.264;9.632;2024-02-15T06:33:44;10.50;;;8.70;;
15094;SDS011;7648;52.264;9.632;2024-02-15T06:38:03;16.47;;;9.30;;
15094;SDS011;7648;52.264;9.632;2024-02-15T06:42:28;13.07;;;9.37;;
15094;SDS011;7648;52.264;9.632;2024-02-15T06:46:32;10.77;;;9.33;;
15094;SDS011;7648;52.264;9.632;2024-02-15T06:50:34;12.97;;;10.50;;
15094;SDS011;7648;52.264;9.632;2024-02-15T06:54:38;14.47;;;9.97;;
15094;SDS011;7648;52.264;9.632;2024-02-15T06:58:40;10.23;;;8.77;;
15094;SDS011;7648;52.264;9.632;2024-02-15T07:02:43;14.00;;;10.30;;
15094;SDS011;7648;52.264;9.632;2024-02-15T07:06:45;8.77;;;7.10;;
15094;SDS011;7648;52.264;9.632;2024-02-15T07:10:48;8.17;;;7.13;;
15094;SDS011;7648;52.264;9.632;2024-02-15T07:14:50;7.93;;;6.90;;
15094;SDS011;7648;52.264;9.632;2024-02-15T07:18:53;9.90;;;7.93;;
15094;SDS011;7648;52.264;9.632;2024-02-15T07:22:55;8.47;;;6.73;;
15094;SDS011;7648;52.264;9.632;2024-02-15T07:26:58;7.00;;;6.30;;
15094;SDS011;7648;52.264;9.632;2024-02-15T07:31:00;6.60;;;6.00;;
15094;SDS011;7648;52.264;9.632;2024-02-15T07:35:04;6.20;;;5.70;;
15094;SDS011;7648;52.264;9.632;2024-02-15T07:39:07;8.87;;;6.43;;
15094;SDS011;7648;52.264;9.632;2024-02-15T07:43:12;7.70;;;6.33;;
15094;SDS011;7648;52.264;9.632;2024-02-15T07:47:14;6.30;;;5.67;;
15094;SDS011;7648;52.264;9.632;2024-02-15T07:51:22;9.57;;;6.67;;
15094;SDS011;7648;52.264;9.632;2024-02-15T07:55:25;6.23;;;5.63;;
15094;SDS011;7648;52.264;9.632;2024-02-15T07:59:28;5.00;;;4.60;;
15094;SDS011;7648;52.264;9.632;2024-02-15T08:03:30;4.70;;;4.30;;
15094;SDS011;7648;52.264;9.632;2024-02-15T08:07:33;5.73;;;4.23;;
15094;SDS011;7648;52.264;9.632;2024-02-15T08:11:36;4.97;;;3.87;;
15094;SDS011;7648;52.264;9.632;2024-02-15T08:15:39;3.60;;;3.30;;
15094;SDS011;7648;52.264;9.632;2024-02-15T08:19:42;3.83;;;3.53;;
15094;SDS011;7648;52.264;9.632;2024-02-15T08:23:46;3.90;;;3.60;;
15094;SDS011;7648;52.264;9.632;2024-02-15T08:27:48;3.20;;;3.00;;
15094;SDS011;7648;52.264;9.632;2024-02-15T08:31:50;2.80;;;2.60;;
15094;SDS011;7648;52.264;9.632;2024-02-15T08:35:52;3.80;;;2.70;;
15094;SDS011;7648;52.264;9.632;2024-02-15T08:39:56;2.67;;;2.50;;
15094;SDS011;7648;52.264;9.632;2024-02-15T08:43:59;1.97;;;1.87;;
15094;SDS011;7648;52.264;9.632;2024-02-15T08:48:06;1.70;;;1.70;;
15094;SDS011;7648;52.264;9.632;2024-02-15T08:52:08;1.40;;;1.40;;
15094;SDS011;7648;52.264;9.632;2024-02-15T08:56:11;2.50;;;2.00;;
15094;SDS011;7648;52.264;9.632;2024-02-15T09:00:13;1.63;;;1.53;;
15094;SDS011;7648;52.264;9.632;2024-02-15T09:04:16;1.70;;;1.60;;
15094;SDS011;7648;52.264;9.632;2024-02-15T09:08:18;1.50;;;1.50;;
15094;SDS011;7648;52.264;9.632;2024-02-15T09:12:22;1.77;;;1.67;;
15094;SDS011;7648;52.264;9.632;2024-02-15T09:16:24;1.60;;;1.50;;
15094;SDS011;7648;52.264;9.632;2024-02-15T09:20:26;1.40;;;1.30;;
15094;SDS011;7648;52.264;9.632;2024-02-15T09:24:30;1.10;;;1.10;;
15094;SDS011;7648;52.264;9.632;2024-02-15T09:28:35;1.30;;;1.30;;
15094;SDS011;7648;52.264;9.632;2024-02-15T09:32:37;1.60;;;1.50;;
15094;SDS011;7648;52.264;9.632;2024-02-15T09:36:39;2.50;;;1.50;;
15094;SDS011;7648;52.264;9.632;2024-02-15T09:40:41;1.87;;;1.40;;
15094;SDS011;7648;52.264;9.632;2024-02-15T09:44:45;1.60;;;1.50;;
15094;SDS011;7648;52.264;9.632;2024-02-15T09:48:49;1.43;;;1.43;;
15094;SDS011;7648;52.264;9.632;2024-02-15T09:52:58;3.63;;;1.90;;
15094;SDS011;7648;52.264;9.632;2024-02-15T09:57:02;2.63;;;2.47;;
15094;SDS011;7648;52.264;9.632;2024-02-15T10:01:06;1.97;;;1.80;;
15094;SDS011;7648;52.264;9.632;2024-02-15T10:05:10;1.60;;;1.50;;
15094;SDS011;7648;52.264;9.632;2024-02-15T10:09:25;1.33;;;1.33;;
15094;SDS011;7648;52.264;9.632;2024-02-15T10:13:30;1.50;;;1.40;;
15094;SDS011;7648;52.264;9.632;2024-02-15T10:17:34;1.40;;;1.37;;
15094;SDS011;7648;52.264;9.632;2024-02-15T10:21:36;1.27;;;1.17;;
15094;SDS011;7648;52.264;9.632;2024-02-15T10:25:40;1.27;;;1.10;;
15094;SDS011;7648;52.264;9.632;2024-02-15T10:29:42;1.27;;;1.27;;
15094;SDS011;7648;52.264;9.632;2024-02-15T10:33:45;1.40;;;1.30;;
15094;SDS011;7648;52.264;9.632;2024-02-15T10:37:47;2.70;;;1.60;;
15094;SDS011;7648;52.264;9.632;2024-02-15T10:41:51;2.43;;;1.67;;
15094;SDS011;7648;52.264;9.632;2024-02-15T10:45:54;1.67;;;1.57;;
15094;SDS011;7648;52.264;9.632;2024-02-15T10:49:58;2.37;;;1.60;;
15094;SDS011;7648;52.264;9.632;2024-02-15T10:54:01;1.60;;;1.20;;
15094;SDS011;7648;52.264;9.632;2024-02-15T10:58:05;2.77;;;2.57;;
15094;SDS011;7648;52.264;9.632;2024-02-15T11:02:21;2.33;;;1.67;;
15094;SDS011;7648;52.264;9.632;2024-02-15T11:06:31;1.80;;;1.63;;
15094;SDS011;7648;52.264;9.632;2024-02-15T11:10:37;1.67;;;1.57;;
15094;SDS011;7648;52.264;9.632;2024-02-15T11:14:44;2.27;;;1.57;;
15094;SDS011;7648;52.264;9.632;2024-02-15T11:18:46;1.73;;;1.63;;
15094;SDS011;7648;52.264;9.632;2024-02-15T11:22:57;2.20;;;1.70;;
15094;SDS011;7648;52.264;9.632;2024-02-15T11:26:59;2.20;;;1.70;;
15094;SDS011;7648;52.264;9.632;2024-02-15T11:31:06;2.10;;;1.73;;
15094;SDS011;7648;52.264;9.632;2024-02-15T11:35:09;2.60;;;1.60;;
15094;SDS011;7648;52.264;9.632;2024-02-15T11:43:50;1.80;;;1.70;;
15094;SDS011;7648;52.264;9.632;2024-02-15T11:47:58;1.37;;;1.33;;
15094;SDS011;7648;52.264;9.632;2024-02-15T11:52:08;1.87;;;1.67;;
15094;SDS011;7648;52.264;9.632;2024-02-15T11:56:12;1.67;;;1.57;;
15094;SDS011;7648;52.264;9.632;2024-02-15T12:00:22;1.60;;;1.50;;
15094;SDS011;7648;52.264;9.632;2024-02-15T12:04:42;1.70;;;1.60;;
15094;SDS011;7648;52.264;9.632;2024-02-15T12:09:01;1.60;;;1.50;;
15094;SDS011;7648;52.264;9.632;2024-02-15T12:13:22;1.53;;;1.40;;
15094;SDS011;7648;52.264;9.632;2024-02-15T12:17:42;1.00;;;1.00;;
15094;SDS011;7648;52.264;9.632;2024-02-15T12:22:01;2.03;;;1.77;;
15094;SDS011;7648;52.264;9.632;2024-02-15T12:26:04;1.77;;;1.40;;
15094;SDS011;7648;52.264;9.632;2024-02-15T12:30:12;1.77;;;1.23;;
15094;SDS011;7648;52.264;9.632;2024-02-15T12:34:16;2.73;;;1.70;;
15094;SDS011;7648;52.264;9.632;2024-02-15T12:38:22;1.67;;;1.57;;
15094;SDS011;7648;52.264;9.632;2024-02-15T12:42:23;1.50;;;1.40;;
15094;SDS011;7648;52.264;9.632;2024-02-15T12:46:27;1.40;;;1.30;;
15094;SDS011;7648;52.264;9.632;2024-02-15T12:50:29;1.60;;;1.50;;
15094;SDS011;7648;52.264;9.632;2024-02-15T12:54:32;1.73;;;1.53;;
15094;SDS011;7648;52.264;9.632;2024-02-15T12:58:33;1.50;;;1.33;;
15094;SDS011;7648;52.264;9.632;2024-02-15T13:02:37;1.77;;;1.67;;
15094;SDS011;7648;52.264;9.632;2024-02-15T13:06:39;1.97;;;1.67;;
15094;SDS011;7648;52.264;9.632;2024-02-15T13:10:41;1.47;;;1.37;;
15094;SDS011;7648;52.264;9.632;2024-02-15T13:14:43;1.53;;;1.43;;
15094;SDS011;7648;52.264;9.632;2024-02-15T13:18:46;2.43;;;1.70;;
15094;SDS011;7648;52.264;9.632;2024-02-15T13:22:48;1.10;;;1.03;;
15094;SDS011;7648;52.264;9.632;2024-02-15T13:26:50;1.60;;;1.50;;
15094;SDS011;7648;52.264;9.632;2024-02-15T13:30:52;1.70;;;1.60;;
15094;SDS011;7648;52.264;9.632;2024-02-15T13:34:57;1.90;;;1.50;;
15094;SDS011;7648;52.264;9.632;2024-02-15T13:39:07;1.47;;;1.37;;
15094;SDS011;7648;52.264;9.632;2024-02-15T13:43:09;1.20;;;1.20;;
15094;SDS011;7648;52.264;9.632;2024-02-15T13:47:11;1.60;;;1.50;;
15094;SDS011;7648;52.264;9.632;2024-02-15T13:51:14;1.87;;;1.77;;
15094;SDS011;7648;52.264;9.632;2024-02-15T13:55:17;1.40;;;1.30;;
15094;SDS011;7648;52.264;9.632;2024-02-15T13:59:20;1.50;;;1.50;;
15094;SDS011;7648;52.264;9.632;2024-02-15T14:03:23;2.83;;;2.60;;
15094;SDS011;7648;52.264;9.632;2024-02-15T14:07:26;1.83;;;1.70;;
15094;SDS011;7648;52.264;9.632;2024-02-15T14:11:29;1.63;;;1.53;;
15094;SDS011;7648;52.264;9.632;2024-02-15T14:15:31;1.60;;;1.50;;
15094;SDS011;7648;52.264;9.632;2024-02-15T14:19:37;1.50;;;1.40;;
15094;SDS011;7648;52.264;9.632;2024-02-15T14:23:40;1.70;;;1.60;;
15094;SDS011;7648;52.264;9.632;2024-02-15T14:27:42;2.20;;;1.70;;
15094;SDS011;7648;52.264;9.632;2024-02-15T14:31:44;1.60;;;1.50;;
15094;SDS011;7648;52.264;9.632;2024-02-15T14:36:04;1.77;;;1.40;;
15094;SDS011;7648;52.264;9.632;2024-02-15T14:40:08;1.10;;;1.10;;
15094;SDS011;7648;52.264;9.632;2024-02-15T14:44:13;2.00;;;1.60;;
15094;SDS011;7648;52.264;9.632;2024-02-15T14:48:15;2.67;;;1.60;;
15094;SDS011;7648;52.264;9.632;2024-02-15T14:52:18;2.47;;;2.13;;
15094;SDS011;7648;52.264;9.632;2024-02-15T14:56:22;2.27;;;1.60;;
15094;SDS011;7648;52.264;9.632;2024-02-15T15:00:24;2.47;;;1.60;;
15094;SDS011;7648;52.264;9.632;2024-02-15T15:04:27;1.73;;;1.63;;
15094;SDS011;7648;52.264;9.632;2024-02-15T15:08:35;1.60;;;1.50;;
15094;SDS011;7648;52.264;9.632;2024-02-15T15:12:56;2.83;;;1.50;;
15094;SDS011;7648;52.264;9.632;2024-02-15T15:16:57;1.63;;;1.53;;
15094;SDS011;7648;52.264;9.632;2024-02-15T15:21:00;2.40;;;1.80;;
15094;SDS011;7648;52.264;9.632;2024-02-15T15:25:02;1.37;;;1.23;;
15094;SDS011;7648;52.264;9.632;2024-02-15T15:29:06;1.80;;;1.70;;
15094;SDS011;7648;52.264;9.632;2024-02-15T15:33:08;1.43;;;1.33;;
15094;SDS011;7648;52.264;9.632;2024-02-15T15:37:11;1.60;;;1.50;;
15094;SDS011;7648;52.264;9.632;2024-02-15T15:41:13;2.67;;;1.80;;
15094;SDS011;7648;52.264;9.632;2024-02-15T15:45:17;2.50;;;1.60;;
15094;SDS011;7648;52.264;9.632;2024-02-15T15:49:21;2.00;;;1.90;;
15094;SDS011;7648;52.264;9.632;2024-02-15T15:53:32;2.20;;;1.97;;
15094;SDS011;7648;52.264;9.632;2024-02-15T15:57:35;2.43;;;2.10;;
15094;SDS011;7648;52.264;9.632;2024-02-15T16:01:39;3.23;;;2.20;;
15094;SDS011;7648;52.264;9.632;2024-02-15T16:05:49;2.30;;;2.20;;
15094;SDS011;7648;52.264;9.632;2024-02-15T16:09:52;3.77;;;2.53;;
15094;SDS011;7648;52.264;9.632;2024-02-15T16:13:55;2.10;;;2.00;;
15094;SDS011;7648;52.264;9.632;2024-02-15T16:17:58;2.33;;;2.13;;
15094;SDS011;7648;52.264;9.632;2024-02-15T16:22:01;3.50;;;2.27;;
15094;SDS011;7648;52.264;9.632;2024-02-15T16:26:03;2.83;;;2.43;;
15094;SDS011;7648;52.264;9.632;2024-02-15T16:30:06;2.30;;;2.13;;
15094;SDS011;7648;52.264;9.632;2024-02-15T16:34:11;2.20;;;2.10;;
15094;SDS011;7648;52.264;9.632;2024-02-15T16:38:13;1.97;;;1.87;;
15094;SDS011;7648;52.264;9.632;2024-02-15T16:42:16;2.70;;;2.50;;
15094;SDS011;7648;52.264;9.632;2024-02-15T16:46:18;3.20;;;2.90;;
15094;SDS011;7648;52.264;9.632;2024-02-15T16:50:25;3.00;;;2.80;;
15094;SDS011;7648;52.264;9.632;2024-02-15T16:54:27;3.20;;;3.00;;
15094;SDS011;7648;52.264;9.632;2024-02-15T16:58:29;3.80;;;3.00;;
15094;SDS011;7648;52.264;9.632;2024-02-15T17:02:31;2.70;;;2.50;;
15094;SDS011;7648;52.264;9.632;2024-02-15T17:06:49;3.43;;;3.23;;
15094;SDS011;7648;52.264;9.632;2024-02-15T17:10:51;5.20;;;2.57;;
15094;SDS011;7648;52.264;9.632;2024-02-15T17:14:53;2.77;;;2.57;;
15094;SDS011;7648;52.264;9.632;2024-02-15T17:18:55;3.53;;;2.50;;
15094;SDS011;7648;52.264;9.632;2024-02-15T17:23:00;2.53;;;2.33;;
15094;SDS011;7648;52.264;9.632;2024-02-15T17:27:03;2.77;;;2.57;;
15094;SDS011;7648;52.264;9.632;2024-02-15T17:31:05;3.10;;;2.90;;
15094;SDS011;7648;52.264;9.632;2024-02-15T17:35:08;2.70;;;2.50;;
15094;SDS011;7648;52.264;9.632;2024-02-15T17:39:14;3.20;;;2.70;;
15094;SDS011;7648;52.264;9.632;2024-02-15T17:43:17;2.70;;;1.97;;
15094;SDS011;7648;52.264;9.632;2024-02-15T17:47:18;2.00;;;1.87;;
15094;SDS011;7648;52.264;9.632;2024-02-15T17:51:21;4.13;;;2.63;;
15094;SDS011;7648;52.264;9.632;2024-02-15T17:55:24;3.60;;;2.17;;
15094;SDS011;7648;52.264;9.632;2024-02-15T17:59:26;2.30;;;2.10;;
15094;SDS011;7648;52.264;9.632;2024-02-15T18:03:28;1.93;;;1.83;;
15094;SDS011;7648;52.264;9.632;2024-02-15T18:07:30;3.13;;;1.97;;
15094;SDS011;7648;52.264;9.632;2024-02-15T18:11:33;2.20;;;2.00;;
15094;SDS011;7648;52.264;9.632;2024-02-15T18:15:35;1.83;;;1.73;;
15094;SDS011;7648;52.264;9.632;2024-02-15T18:19:44;2.47;;;2.10;;
15094;SDS011;7648;52.264;9.632;2024-02-15T18:23:46;2.20;;;2.10;;
15094;SDS011;7648;52.264;9.632;2024-02-15T18:27:49;2.07;;;1.97;;
15094;SDS011;7648;52.264;9.632;2024-02-15T18:31:51;2.30;;;2.10;;
15094;SDS011;7648;52.264;9.632;2024-02-15T18:35:54;3.57;;;1.80;;
15094;SDS011;7648;52.264;9.632;2024-02-15T18:39:58;1.60;;;1.50;;
15094;SDS011;7648;52.264;9.632;2024-02-15T18:44:02;4.20;;;1.80;;
15094;SDS011;7648;52.264;9.632;2024-02-15T18:48:04;2.47;;;1.90;;
15094;SDS011;7648;52.264;9.632;2024-02-15T18:52:09;1.70;;;1.60;;
15094;SDS011;7648;52.264;9.632;2024-02-15T18:56:14;2.43;;;1.80;;
15094;SDS011;7648;52.264;9.632;2024-02-15T19:00:19;2.40;;;2.13;;
15094;SDS011;7648;52.264;9.632;2024-02-15T19:04:23;2.77;;;2.57;;
15094;SDS011;7648;52.264;9.632;2024-02-15T19:08:26;4.37;;;2.27;;
15094;SDS011;7648;52.264;9.632;2024-02-15T19:12:28;2.50;;;2.30;;
15094;SDS011;7648;52.264;9.632;2024-02-15T19:16:33;2.10;;;2.00;;
15094;SDS011;7648;52.264;9.632;2024-02-15T19:20:36;2.53;;;1.90;;
15094;SDS011;7648;52.264;9.632;2024-02-15T19:24:38;2.30;;;2.20;;
15094;SDS011;7648;52.264;9.632;2024-02-15T19:28:40;2.87;;;2.57;;
15094;SDS011;7648;52.264;9.632;2024-02-15T19:32:45;2.40;;;2.30;;
15094;SDS011;7648;52.264;9.632;2024-02-15T19:36:47;2.23;;;2.13;;
15094;SDS011;7648;52.264;9.632;2024-02-15T19:40:49;3.00;;;2.70;;
15094;SDS011;7648;52.264;9.632;2024-02-15T19:44:51;2.60;;;2.40;;
15094;SDS011;7648;52.264;9.632;2024-02-15T19:48:55;2.27;;;2.17;;
15094;SDS011;7648;52.264;9.632;2024-02-15T19:52:56;1.70;;;1.60;;
15094;SDS011;7648;52.264;9.632;2024-02-15T19:56:59;1.53;;;1.50;;
15094;SDS011;7648;52.264;9.632;2024-02-15T20:01:01;1.80;;;1.70;;
15094;SDS011;7648;52.264;9.632;2024-02-15T20:05:05;1.60;;;1.50;;
15094;SDS011;7648;52.264;9.632;2024-02-15T20:09:08;3.13;;;1.47;;
15094;SDS011;7648;52.264;9.632;2024-02-15T20:13:10;2.60;;;1.90;;
15094;SDS011;7648;52.264;9.632;2024-02-15T20:17:12;2.27;;;1.63;;
15094;SDS011;7648;52.264;9.632;2024-02-15T20:21:16;3.50;;;2.37;;
15094;SDS011;7648;52.264;9.632;2024-02-15T20:25:18;2.30;;;1.60;;
15094;SDS011;7648;52.264;9.632;2024-02-15T20:29:21;2.43;;;1.80;;
15094;SDS011;7648;52.264;9.632;2024-02-15T20:33:24;2.13;;;1.50;;
15094;SDS011;7648;52.264;9.632;2024-02-15T20:37:29;1.47;;;1.37;;
15094;SDS011;7648;52.264;9.632;2024-02-15T20:41:31;1.63;;;1.40;;
15094;SDS011;7648;52.264;9.632;2024-02-15T20:45:33;4.07;;;1.90;;
15094;SDS011;7648;52.264;9.632;2024-02-15T20:49:35;3.53;;;1.60;;
15094;SDS011;7648;52.264;9.632;2024-02-15T20:53:38;1.67;;;1.53;;
15094;SDS011;7648;52.264;9.632;2024-02-15T20:57:40;1.73;;;1.60;;
15094;SDS011;7648;52.264;9.632;2024-02-15T21:01:42;3.17;;;1.70;;
15094;SDS011;7648;52.264;9.632;2024-02-15T21:05:43;2.70;;;1.50;;
15094;SDS011;7648;52.264;9.632;2024-02-15T21:09:47;1.97;;;1.57;;
15094;SDS011;7648;52.264;9.632;2024-02-15T21:13:49;1.30;;;1.30;;
15094;SDS011;7648;52.264;9.632;2024-02-15T21:17:51;2.63;;;1.70;;
15094;SDS011;7648;52.264;9.632;2024-02-15T21:21:53;2.00;;;1.80;;
15094;SDS011;7648;52.264;9.632;2024-02-15T21:25:56;2.50;;;2.10;;
15094;SDS011;7648;52.264;9.632;2024-02-15T21:29:59;2.30;;;1.73;;
15094;SDS011;7648;52.264;9.632;2024-02-15T21:34:04;2.97;;;1.93;;
15094;SDS011;7648;52.264;9.632;2024-02-15T21:38:09;2.10;;;2.00;;
15094;SDS011;7648;52.264;9.632;2024-02-15T21:42:12;3.47;;;2.10;;
15094;SDS011;7648;52.264;9.632;2024-02-15T21:46:15;3.77;;;2.47;;
15094;SDS011;7648;52.264;9.632;2024-02-15T21:50:16;2.90;;;1.80;;
15094;SDS011;7648;52.264;9.632;2024-02-15T21:54:18;2.67;;;1.73;;
15094;SDS011;7648;52.264;9.632;2024-02-15T21:58:23;1.43;;;1.43;;
15094;SDS011;7648;52.264;9.632;2024-02-15T22:02:25;2.00;;;1.80;;
15094;SDS011;7648;52.264;9.632;2024-02-15T22:06:27;1.80;;;1.70;;
15094;SDS011;7648;52.264;9.632;2024-02-15T22:10:29;1.80;;;1.70;;
15094;SDS011;7648;52.264;9.632;2024-02-15T22:14:32;2.00;;;1.90;;
15094;SDS011;7648;52.264;9.632;2024-02-15T22:18:34;4.00;;;2.40;;
15094;SDS011;7648;52.264;9.632;2024-02-15T22:22:36;2.13;;;2.03;;
15094;SDS011;7648;52.264;9.632;2024-02-15T22:26:38;2.37;;;2.20;;
15094;SDS011;7648;52.264;9.632;2024-02-15T22:30:42;3.47;;;2.67;;
15094;SDS011;7648;52.264;9.632;2024-02-15T22:34:44;2.43;;;2.23;;
15094;SDS011;7648;52.264;9.632;2024-02-15T22:38:46;3.00;;;2.23;;
15094;SDS011;7648;52.264;9.632;2024-02-15T22:42:48;2.10;;;1.93;;
15094;SDS011;7648;52.264;9.632;2024-02-15T22:46:54;1.93;;;1.83;;
15094;SDS011;7648;52.264;9.632;2024-02-15T22:50:59;1.73;;;1.63;;
15094;SDS011;7648;52.264;9.632;2024-02-15T22:55:04;2.53;;;1.77;;
15094;SDS011;7648;52.264;9.632;2024-02-15T22:59:06;2.60;;;2.10;;
15094;SDS011;7648;52.264;9.632;2024-02-15T23:03:10;4.13;;;2.50;;
15094;SDS011;7648;52.264;9.632;2024-02-15T23:07:12;2.10;;;1.97;;
15094;SDS011;7648;52.264;9.632;2024-02-15T23:11:14;3.30;;;2.00;;
15094;SDS011;7648;52.264;9.632;2024-02-15T23:15:16;1.73;;;1.63;;
15094;SDS011;7648;52.264;9.632;2024-02-15T23:19:19;1.97;;;1.80;;
15094;SDS011;7648;52.264;9.632;2024-02-15T23:23:21;5.80;;;1.40;;
15094;SDS011;7648;52.264;9.632;2024-02-15T23:27:23;2.57;;;2.07;;
15094;SDS011;7648;52.264;9.632;2024-02-15T23:31:25;2.17;;;1.53;;
15094;SDS011;7648;52.264;9.632;2024-02-15T23:35:29;1.47;;;1.37;;
15094;SDS011;7648;52.264;9.632;2024-02-15T23:39:32;3.47;;;1.70;;
15094;SDS011;7648;52.264;9.632;2024-02-15T23:43:51;1.70;;;1.60;;
15094;SDS011;7648;52.264;9.632;2024-02-15T23:47:53;1.43;;;1.33;;
15094;SDS011;7648;52.264;9.632;2024-02-15T23:51:56;1.37;;;1.37;;
15094;SDS011;7648;52.264;9.632;2024-02-15T23:55:58;1.53;;;1.43;;
